sensor_id;sensor_type;location;lat;lon;timestamp;temperature;humidity
27797;DHT22;15177;50.844;4.412;2023-07-09T00:00:14;25.80;99.90
27797;DHT22;15177;50.844;4.412;2023-07-09T00:02:40;25.80;99.90
27797;DHT22;15177;50.844;4.412;2023-07-09T00:05:11;25.80;99.90
27797;DHT22;15177;50.844;4.412;2023-07-09T00:07:38;25.70;99.90
27797;DHT22;15177;50.844;4.412;2023-07-09T00:10:05;25.70;99.90
27797;DHT22;15177;50.844;4.412;2023-07-09T00:12:31;25.60;99.90
27797;DHT22;15177;50.844;4.412;2023-07-09T00:14:57;25.60;99.90
27797;DHT22;15177;50.844;4.412;2023-07-09T00:17:30;25.50;99.90
27797;DHT22;15177;50.844;4.412;2023-07-09T00:19:59;25.50;99.90
27797;DHT22;15177;50.844;4.412;2023-07-09T00:22:25;25.40;99.90
27797;DHT22;15177;50.844;4.412;2023-07-09T00:24:52;25.40;99.90
27797;DHT22;15177;50.844;4.412;2023-07-09T00:27:24;25.30;99.90
27797;DHT22;15177;50.844;4.412;2023-07-09T00:29:51;25.40;99.90
27797;DHT22;15177;50.844;4.412;2023-07-09T00:32:19;25.40;99.90
27797;DHT22;15177;50.844;4.412;2023-07-09T00:34:48;25.50;99.90
27797;DHT22;15177;50.844;4.412;2023-07-09T00:37:16;25.50;99.90
27797;DHT22;15177;50.844;4.412;2023-07-09T00:39:43;25.50;99.90
27797;DHT22;15177;50.844;4.412;2023-07-09T00:42:17;25.50;99.90
27797;DHT22;15177;50.844;4.412;2023-07-09T00:44:50;25.40;99.90
27797;DHT22;15177;50.844;4.412;2023-07-09T00:53:44;25.40;99.90
27797;DHT22;15177;50.844;4.412;2023-07-09T00:55:55;25.40;99.90
27797;DHT22;15177;50.844;4.412;2023-07-09T00:58:24;25.40;99.90
27797;DHT22;15177;50.844;4.412;2023-07-09T01:01:02;25.40;99.90
27797;DHT22;15177;50.844;4.412;2023-07-09T01:03:35;25.50;99.90
27797;DHT22;15177;50.844;4.412;2023-07-09T01:06:03;25.40;99.90
27797;DHT22;15177;50.844;4.412;2023-07-09T01:08:32;25.40;99.90
27797;DHT22;15177;50.844;4.412;2023-07-09T01:10:58;25.40;99.90
27797;DHT22;15177;50.844;4.412;2023-07-09T01:13:26;25.30;99.90
27797;DHT22;15177;50.844;4.412;2023-07-09T01:15:54;25.30;99.90
27797;DHT22;15177;50.844;4.412;2023-07-09T01:18:20;25.30;99.90
27797;DHT22;15177;50.844;4.412;2023-07-09T01:20:47;25.30;99.90
27797;DHT22;15177;50.844;4.412;2023-07-09T01:23:15;25.10;99.90
27797;DHT22;15177;50.844;4.412;2023-07-09T01:25:46;25.10;99.90
27797;DHT22;15177;50.844;4.412;2023-07-09T01:28:18;25.10;99.90
27797;DHT22;15177;50.844;4.412;2023-07-09T01:30:44;25.10;99.90
27797;DHT22;15177;50.844;4.412;2023-07-09T01:33:11;25.10;99.90
27797;DHT22;15177;50.844;4.412;2023-07-09T01:35:38;25.10;99.90
27797;DHT22;15177;50.844;4.412;2023-07-09T01:38:08;25.10;99.90
27797;DHT22;15177;50.844;4.412;2023-07-09T01:40:35;25.00;99.90
27797;DHT22;15177;50.844;4.412;2023-07-09T01:43:03;24.90;99.90
27797;DHT22;15177;50.844;4.412;2023-07-09T01:45:32;24.80;99.90
27797;DHT22;15177;50.844;4.412;2023-07-09T01:47:58;24.60;99.90
27797;DHT22;15177;50.844;4.412;2023-07-09T01:50:24;24.50;99.90
27797;DHT22;15177;50.844;4.412;2023-07-09T01:52:52;24.40;99.90
27797;DHT22;15177;50.844;4.412;2023-07-09T01:55:19;24.30;99.90
27797;DHT22;15177;50.844;4.412;2023-07-09T01:57:45;24.30;99.90
27797;DHT22;15177;50.844;4.412;2023-07-09T02:00:14;24.30;99.90
27797;DHT22;15177;50.844;4.412;2023-07-09T02:02:44;24.40;99.90
27797;DHT22;15177;50.844;4.412;2023-07-09T02:05:13;24.50;99.90
27797;DHT22;15177;50.844;4.412;2023-07-09T02:07:39;24.40;99.90
27797;DHT22;15177;50.844;4.412;2023-07-09T02:10:06;24.30;99.90
27797;DHT22;15177;50.844;4.412;2023-07-09T02:12:32;24.30;99.90
27797;DHT22;15177;50.844;4.412;2023-07-09T02:14:57;24.30;99.90
27797;DHT22;15177;50.844;4.412;2023-07-09T02:17:23;24.30;99.90
27797;DHT22;15177;50.844;4.412;2023-07-09T02:19:48;24.20;99.90
27797;DHT22;15177;50.844;4.412;2023-07-09T02:22:14;24.10;99.90
27797;DHT22;15177;50.844;4.412;2023-07-09T02:24:40;24.10;99.90
27797;DHT22;15177;50.844;4.412;2023-07-09T02:27:08;24.00;99.90
27797;DHT22;15177;50.844;4.412;2023-07-09T02:29:37;24.00;99.90
27797;DHT22;15177;50.844;4.412;2023-07-09T02:32:06;24.10;99.90
27797;DHT22;15177;50.844;4.412;2023-07-09T02:34:32;24.10;99.90
27797;DHT22;15177;50.844;4.412;2023-07-09T02:36:58;24.10;99.90
27797;DHT22;15177;50.844;4.412;2023-07-09T02:39:25;24.20;99.90
27797;DHT22;15177;50.844;4.412;2023-07-09T02:41:51;24.30;99.90
27797;DHT22;15177;50.844;4.412;2023-07-09T02:44:21;24.30;99.90
27797;DHT22;15177;50.844;4.412;2023-07-09T02:46:47;24.20;99.90
27797;DHT22;15177;50.844;4.412;2023-07-09T02:49:13;24.20;99.90
27797;DHT22;15177;50.844;4.412;2023-07-09T02:51:39;24.20;99.90
27797;DHT22;15177;50.844;4.412;2023-07-09T02:54:07;24.10;99.90
27797;DHT22;15177;50.844;4.412;2023-07-09T02:56:33;24.20;99.90
27797;DHT22;15177;50.844;4.412;2023-07-09T02:58:58;24.20;99.90
27797;DHT22;15177;50.844;4.412;2023-07-09T03:01:24;24.50;99.90
27797;DHT22;15177;50.844;4.412;2023-07-09T03:03:55;24.50;99.90
27797;DHT22;15177;50.844;4.412;2023-07-09T03:06:24;24.30;99.90
27797;DHT22;15177;50.844;4.412;2023-07-09T03:08:50;24.30;99.90
27797;DHT22;15177;50.844;4.412;2023-07-09T03:11:17;24.40;99.90
27797;DHT22;15177;50.844;4.412;2023-07-09T03:13:44;24.10;99.90
27797;DHT22;15177;50.844;4.412;2023-07-09T03:16:11;24.20;99.90
27797;DHT22;15177;50.844;4.412;2023-07-09T03:18:37;24.20;99.90
27797;DHT22;15177;50.844;4.412;2023-07-09T03:21:03;24.10;99.90
27797;DHT22;15177;50.844;4.412;2023-07-09T03:23:31;24.10;99.90
27797;DHT22;15177;50.844;4.412;2023-07-09T03:25:57;24.10;99.90
27797;DHT22;15177;50.844;4.412;2023-07-09T03:28:29;24.20;99.90
27797;DHT22;15177;50.844;4.412;2023-07-09T03:30:55;24.20;99.90
27797;DHT22;15177;50.844;4.412;2023-07-09T03:33:22;24.20;99.90
27797;DHT22;15177;50.844;4.412;2023-07-09T03:35:47;24.20;99.90
27797;DHT22;15177;50.844;4.412;2023-07-09T03:38:13;24.10;99.90
27797;DHT22;15177;50.844;4.412;2023-07-09T03:40:39;24.30;99.90
27797;DHT22;15177;50.844;4.412;2023-07-09T03:43:06;24.20;99.90
27797;DHT22;15177;50.844;4.412;2023-07-09T03:45:37;24.00;99.90
27797;DHT22;15177;50.844;4.412;2023-07-09T03:48:04;24.10;99.90
27797;DHT22;15177;50.844;4.412;2023-07-09T03:50:30;24.20;99.90
27797;DHT22;15177;50.844;4.412;2023-07-09T03:52:55;24.30;99.90
27797;DHT22;15177;50.844;4.412;2023-07-09T03:55:21;24.40;99.90
27797;DHT22;15177;50.844;4.412;2023-07-09T03:57:47;24.40;99.90
27797;DHT22;15177;50.844;4.412;2023-07-09T04:00:14;24.40;99.90
27797;DHT22;15177;50.844;4.412;2023-07-09T04:02:41;24.50;99.90
27797;DHT22;15177;50.844;4.412;2023-07-09T04:05:10;24.50;99.90
27797;DHT22;15177;50.844;4.412;2023-07-09T04:07:37;24.60;99.90
27797;DHT22;15177;50.844;4.412;2023-07-09T04:10:04;24.50;99.90
27797;DHT22;15177;50.844;4.412;2023-07-09T04:12:30;24.60;99.90
27797;DHT22;15177;50.844;4.412;2023-07-09T04:14:56;24.60;99.90
27797;DHT22;15177;50.844;4.412;2023-07-09T04:17:21;24.70;99.90
27797;DHT22;15177;50.844;4.412;2023-07-09T04:19:49;24.70;99.90
27797;DHT22;15177;50.844;4.412;2023-07-09T04:22:16;24.80;99.90
27797;DHT22;15177;50.844;4.412;2023-07-09T04:24:42;24.80;99.90
27797;DHT22;15177;50.844;4.412;2023-07-09T04:27:09;24.80;99.90
27797;DHT22;15177;50.844;4.412;2023-07-09T04:29:34;24.80;99.90
27797;DHT22;15177;50.844;4.412;2023-07-09T04:32:14;24.90;99.90
27797;DHT22;15177;50.844;4.412;2023-07-09T04:34:41;24.90;99.90
27797;DHT22;15177;50.844;4.412;2023-07-09T04:37:10;25.00;99.90
27797;DHT22;15177;50.844;4.412;2023-07-09T04:39:42;25.00;99.90
27797;DHT22;15177;50.844;4.412;2023-07-09T04:42:13;25.00;99.90
27797;DHT22;15177;50.844;4.412;2023-07-09T04:44:39;25.00;99.90
27797;DHT22;15177;50.844;4.412;2023-07-09T04:47:09;25.00;99.90
27797;DHT22;15177;50.844;4.412;2023-07-09T04:49:35;25.10;99.90
27797;DHT22;15177;50.844;4.412;2023-07-09T04:52:01;25.20;99.90
27797;DHT22;15177;50.844;4.412;2023-07-09T04:54:27;25.20;99.90
27797;DHT22;15177;50.844;4.412;2023-07-09T04:56:56;25.20;99.90
27797;DHT22;15177;50.844;4.412;2023-07-09T04:59:22;25.30;99.90
27797;DHT22;15177;50.844;4.412;2023-07-09T05:01:49;25.30;99.90
27797;DHT22;15177;50.844;4.412;2023-07-09T05:04:15;25.40;99.90
27797;DHT22;15177;50.844;4.412;2023-07-09T05:06:42;25.40;99.90
27797;DHT22;15177;50.844;4.412;2023-07-09T05:09:09;25.30;99.90
27797;DHT22;15177;50.844;4.412;2023-07-09T05:11:37;25.40;99.90
27797;DHT22;15177;50.844;4.412;2023-07-09T05:14:03;25.50;99.90
27797;DHT22;15177;50.844;4.412;2023-07-09T05:16:30;25.60;99.90
27797;DHT22;15177;50.844;4.412;2023-07-09T05:18:57;25.70;99.90
27797;DHT22;15177;50.844;4.412;2023-07-09T05:21:23;25.80;99.90
27797;DHT22;15177;50.844;4.412;2023-07-09T05:23:48;25.90;99.90
27797;DHT22;15177;50.844;4.412;2023-07-09T05:26:15;26.10;99.90
27797;DHT22;15177;50.844;4.412;2023-07-09T05:28:42;26.20;99.90
27797;DHT22;15177;50.844;4.412;2023-07-09T05:31:09;26.40;99.90
27797;DHT22;15177;50.844;4.412;2023-07-09T05:33:35;26.50;99.90
27797;DHT22;15177;50.844;4.412;2023-07-09T05:36:02;26.80;99.90
27797;DHT22;15177;50.844;4.412;2023-07-09T05:38:28;27.00;99.90
27797;DHT22;15177;50.844;4.412;2023-07-09T05:41:02;27.20;99.90
27797;DHT22;15177;50.844;4.412;2023-07-09T05:43:29;27.60;99.90
27797;DHT22;15177;50.844;4.412;2023-07-09T05:45:55;27.90;99.90
27797;DHT22;15177;50.844;4.412;2023-07-09T05:48:21;28.30;99.90
27797;DHT22;15177;50.844;4.412;2023-07-09T05:50:51;28.60;99.90
27797;DHT22;15177;50.844;4.412;2023-07-09T05:53:17;29.10;99.90
27797;DHT22;15177;50.844;4.412;2023-07-09T05:55:42;29.30;99.90
27797;DHT22;15177;50.844;4.412;2023-07-09T05:58:08;29.70;99.90
27797;DHT22;15177;50.844;4.412;2023-07-09T06:00:34;30.00;99.90
27797;DHT22;15177;50.844;4.412;2023-07-09T06:03:01;30.30;99.90
27797;DHT22;15177;50.844;4.412;2023-07-09T06:05:28;30.70;99.90
27797;DHT22;15177;50.844;4.412;2023-07-09T06:07:54;31.30;99.90
27797;DHT22;15177;50.844;4.412;2023-07-09T06:10:20;31.70;99.30
27797;DHT22;15177;50.844;4.412;2023-07-09T06:12:47;32.30;97.40
27797;DHT22;15177;50.844;4.412;2023-07-09T06:15:14;32.90;95.80
27797;DHT22;15177;50.844;4.412;2023-07-09T06:17:40;33.50;93.70
27797;DHT22;15177;50.844;4.412;2023-07-09T06:20:06;34.00;92.30
27797;DHT22;15177;50.844;4.412;2023-07-09T06:22:31;34.30;90.60
27797;DHT22;15177;50.844;4.412;2023-07-09T06:24:57;34.80;88.50
27797;DHT22;15177;50.844;4.412;2023-07-09T06:27:23;35.00;86.30
27797;DHT22;15177;50.844;4.412;2023-07-09T06:29:49;35.20;85.30
27797;DHT22;15177;50.844;4.412;2023-07-09T06:32:17;35.20;83.70
27797;DHT22;15177;50.844;4.412;2023-07-09T06:34:43;35.20;83.60
27797;DHT22;15177;50.844;4.412;2023-07-09T06:37:08;35.20;83.90
27797;DHT22;15177;50.844;4.412;2023-07-09T06:39:34;35.10;82.80
27797;DHT22;15177;50.844;4.412;2023-07-09T06:42:00;35.40;82.50
27797;DHT22;15177;50.844;4.412;2023-07-09T06:44:27;35.50;80.70
27797;DHT22;15177;50.844;4.412;2023-07-09T06:46:53;35.50;80.40
27797;DHT22;15177;50.844;4.412;2023-07-09T06:49:18;35.70;79.90
27797;DHT22;15177;50.844;4.412;2023-07-09T06:51:44;35.60;79.10
27797;DHT22;15177;50.844;4.412;2023-07-09T06:54:12;35.70;78.90
27797;DHT22;15177;50.844;4.412;2023-07-09T06:56:37;36.00;78.30
27797;DHT22;15177;50.844;4.412;2023-07-09T06:59:03;36.20;76.90
27797;DHT22;15177;50.844;4.412;2023-07-09T07:01:29;36.60;76.40
27797;DHT22;15177;50.844;4.412;2023-07-09T07:03:55;37.00;74.70
27797;DHT22;15177;50.844;4.412;2023-07-09T07:06:21;37.40;73.50
27797;DHT22;15177;50.844;4.412;2023-07-09T07:08:47;37.70;72.30
27797;DHT22;15177;50.844;4.412;2023-07-09T07:11:14;37.50;71.80
27797;DHT22;15177;50.844;4.412;2023-07-09T07:13:40;37.60;71.80
27797;DHT22;15177;50.844;4.412;2023-07-09T07:16:09;37.90;71.50
27797;DHT22;15177;50.844;4.412;2023-07-09T07:18:35;37.80;70.70
27797;DHT22;15177;50.844;4.412;2023-07-09T07:21:01;38.10;70.70
27797;DHT22;15177;50.844;4.412;2023-07-09T07:23:27;38.40;69.80
27797;DHT22;15177;50.844;4.412;2023-07-09T07:25:53;38.30;69.40
27797;DHT22;15177;50.844;4.412;2023-07-09T07:28:20;38.40;68.40
27797;DHT22;15177;50.844;4.412;2023-07-09T07:30:46;39.00;67.20
27797;DHT22;15177;50.844;4.412;2023-07-09T07:33:13;39.30;66.20
27797;DHT22;15177;50.844;4.412;2023-07-09T07:35:40;38.10;67.70
27797;DHT22;15177;50.844;4.412;2023-07-09T07:38:06;37.10;70.50
27797;DHT22;15177;50.844;4.412;2023-07-09T07:40:33;36.60;72.40
27797;DHT22;15177;50.844;4.412;2023-07-09T07:42:59;36.50;73.40
27797;DHT22;15177;50.844;4.412;2023-07-09T07:45:25;37.10;72.30
27797;DHT22;15177;50.844;4.412;2023-07-09T07:47:51;37.40;71.70
27797;DHT22;15177;50.844;4.412;2023-07-09T07:50:17;38.20;70.60
27797;DHT22;15177;50.844;4.412;2023-07-09T07:52:43;39.00;68.10
27797;DHT22;15177;50.844;4.412;2023-07-09T07:55:09;39.00;67.70
27797;DHT22;15177;50.844;4.412;2023-07-09T07:57:35;39.20;66.70
27797;DHT22;15177;50.844;4.412;2023-07-09T08:00:01;39.90;65.30
27797;DHT22;15177;50.844;4.412;2023-07-09T08:02:27;40.30;64.90
27797;DHT22;15177;50.844;4.412;2023-07-09T08:04:52;40.20;63.10
27797;DHT22;15177;50.844;4.412;2023-07-09T08:07:19;40.40;61.90
27797;DHT22;15177;50.844;4.412;2023-07-09T08:09:45;39.50;62.50
27797;DHT22;15177;50.844;4.412;2023-07-09T08:12:15;39.30;62.70
27797;DHT22;15177;50.844;4.412;2023-07-09T08:14:42;39.40;62.70
27797;DHT22;15177;50.844;4.412;2023-07-09T08:17:09;39.50;61.80
27797;DHT22;15177;50.844;4.412;2023-07-09T08:19:51;39.90;62.30
27797;DHT22;15177;50.844;4.412;2023-07-09T08:22:18;39.60;60.40
27797;DHT22;15177;50.844;4.412;2023-07-09T08:24:49;39.70;60.10
27797;DHT22;15177;50.844;4.412;2023-07-09T08:27:15;39.70;59.80
27797;DHT22;15177;50.844;4.412;2023-07-09T08:29:40;40.20;59.50
27797;DHT22;15177;50.844;4.412;2023-07-09T08:32:08;40.70;58.80
27797;DHT22;15177;50.844;4.412;2023-07-09T08:34:37;40.70;57.80
27797;DHT22;15177;50.844;4.412;2023-07-09T08:37:03;40.20;58.30
27797;DHT22;15177;50.844;4.412;2023-07-09T08:39:29;39.90;57.80
27797;DHT22;15177;50.844;4.412;2023-07-09T08:49:58;39.40;57.60
27797;DHT22;15177;50.844;4.412;2023-07-09T08:54:50;40.00;56.90
27797;DHT22;15177;50.844;4.412;2023-07-09T08:57:22;40.30;55.60
27797;DHT22;15177;50.844;4.412;2023-07-09T08:59:52;40.40;55.50
27797;DHT22;15177;50.844;4.412;2023-07-09T09:05:18;39.50;56.50
27797;DHT22;15177;50.844;4.412;2023-07-09T09:07:45;40.20;56.30
27797;DHT22;15177;50.844;4.412;2023-07-09T09:10:18;40.60;55.60
27797;DHT22;15177;50.844;4.412;2023-07-09T09:13:16;40.50;55.30
27797;DHT22;15177;50.844;4.412;2023-07-09T09:15:45;40.30;55.50
27797;DHT22;15177;50.844;4.412;2023-07-09T09:18:22;40.70;55.20
27797;DHT22;15177;50.844;4.412;2023-07-09T09:21:01;40.90;54.80
27797;DHT22;15177;50.844;4.412;2023-07-09T09:23:40;41.10;54.50
27797;DHT22;15177;50.844;4.412;2023-07-09T09:26:15;41.10;53.90
27797;DHT22;15177;50.844;4.412;2023-07-09T09:28:43;41.20;53.80
27797;DHT22;15177;50.844;4.412;2023-07-09T09:31:11;41.00;54.30
27797;DHT22;15177;50.844;4.412;2023-07-09T09:33:48;41.30;54.10
27797;DHT22;15177;50.844;4.412;2023-07-09T09:36:21;40.00;55.20
27797;DHT22;15177;50.844;4.412;2023-07-09T09:38:47;39.40;56.10
27797;DHT22;15177;50.844;4.412;2023-07-09T09:41:18;39.20;57.10
27797;DHT22;15177;50.844;4.412;2023-07-09T09:43:46;39.70;56.10
27797;DHT22;15177;50.844;4.412;2023-07-09T09:46:23;40.30;55.70
27797;DHT22;15177;50.844;4.412;2023-07-09T09:48:51;40.70;55.20
27797;DHT22;15177;50.844;4.412;2023-07-09T09:51:18;41.00;54.20
27797;DHT22;15177;50.844;4.412;2023-07-09T09:53:50;41.40;54.30
27797;DHT22;15177;50.844;4.412;2023-07-09T09:56:31;41.30;53.40
27797;DHT22;15177;50.844;4.412;2023-07-09T09:58:59;41.00;54.40
27797;DHT22;15177;50.844;4.412;2023-07-09T10:01:28;40.80;55.20
27797;DHT22;15177;50.844;4.412;2023-07-09T10:03:56;41.20;54.90
27797;DHT22;15177;50.844;4.412;2023-07-09T10:06:43;41.00;54.70
27797;DHT22;15177;50.844;4.412;2023-07-09T10:09:38;40.90;55.10
27797;DHT22;15177;50.844;4.412;2023-07-09T10:17:39;40.00;56.30
27797;DHT22;15177;50.844;4.412;2023-07-09T10:26:13;37.90;59.20
27797;DHT22;15177;50.844;4.412;2023-07-09T10:35:07;36.90;62.10
27797;DHT22;15177;50.844;4.412;2023-07-09T10:40:09;36.30;62.90
27797;DHT22;15177;50.844;4.412;2023-07-09T10:42:46;35.90;64.50
27797;DHT22;15177;50.844;4.412;2023-07-09T10:45:19;35.50;65.70
27797;DHT22;15177;50.844;4.412;2023-07-09T10:48:14;35.10;66.60
27797;DHT22;15177;50.844;4.412;2023-07-09T10:50:47;34.30;69.00
27797;DHT22;15177;50.844;4.412;2023-07-09T10:59:05;32.80;73.90
27797;DHT22;15177;50.844;4.412;2023-07-09T11:01:43;32.50;74.90
27797;DHT22;15177;50.844;4.412;2023-07-09T11:04:33;32.30;77.20
27797;DHT22;15177;50.844;4.412;2023-07-09T11:07:04;32.30;76.50
27797;DHT22;15177;50.844;4.412;2023-07-09T11:09:37;32.10;78.00
27797;DHT22;15177;50.844;4.412;2023-07-09T11:12:11;31.90;78.50
27797;DHT22;15177;50.844;4.412;2023-07-09T11:14:42;31.80;79.00
27797;DHT22;15177;50.844;4.412;2023-07-09T11:17:14;31.60;79.80
27797;DHT22;15177;50.844;4.412;2023-07-09T11:19:42;31.40;81.20
27797;DHT22;15177;50.844;4.412;2023-07-09T11:22:35;31.30;81.90
27797;DHT22;15177;50.844;4.412;2023-07-09T11:25:06;31.30;82.50
27797;DHT22;15177;50.844;4.412;2023-07-09T11:27:32;31.40;81.70
27797;DHT22;15177;50.844;4.412;2023-07-09T11:30:18;31.50;81.90
27797;DHT22;15177;50.844;4.412;2023-07-09T11:32:47;31.40;82.10
27797;DHT22;15177;50.844;4.412;2023-07-09T11:35:21;31.20;82.30
27797;DHT22;15177;50.844;4.412;2023-07-09T11:37:51;30.90;83.50
27797;DHT22;15177;50.844;4.412;2023-07-09T11:40:21;30.80;84.00
27797;DHT22;15177;50.844;4.412;2023-07-09T11:42:54;30.70;84.60
27797;DHT22;15177;50.844;4.412;2023-07-09T11:45:39;30.70;84.90
27797;DHT22;15177;50.844;4.412;2023-07-09T11:50:45;30.40;85.70
27797;DHT22;15177;50.844;4.412;2023-07-09T11:53:34;30.20;86.60
27797;DHT22;15177;50.844;4.412;2023-07-09T11:56:02;30.10;87.60
27797;DHT22;15177;50.844;4.412;2023-07-09T11:58:28;29.90;88.70
27797;DHT22;15177;50.844;4.412;2023-07-09T12:00:58;29.70;89.50
27797;DHT22;15177;50.844;4.412;2023-07-09T12:03:38;29.40;90.20
27797;DHT22;15177;50.844;4.412;2023-07-09T12:06:25;29.30;91.00
27797;DHT22;15177;50.844;4.412;2023-07-09T12:08:52;29.20;91.40
27797;DHT22;15177;50.844;4.412;2023-07-09T12:11:26;29.20;91.80
27797;DHT22;15177;50.844;4.412;2023-07-09T12:13:53;29.10;92.20
27797;DHT22;15177;50.844;4.412;2023-07-09T12:16:30;29.00;92.70
27797;DHT22;15177;50.844;4.412;2023-07-09T12:18:56;29.00;93.50
27797;DHT22;15177;50.844;4.412;2023-07-09T12:21:23;29.10;94.30
27797;DHT22;15177;50.844;4.412;2023-07-09T12:23:50;29.10;94.80
27797;DHT22;15177;50.844;4.412;2023-07-09T12:26:18;29.10;95.90
27797;DHT22;15177;50.844;4.412;2023-07-09T12:28:53;29.10;96.60
27797;DHT22;15177;50.844;4.412;2023-07-09T12:31:26;28.90;99.10
27797;DHT22;15177;50.844;4.412;2023-07-09T12:33:54;28.80;99.90
27797;DHT22;15177;50.844;4.412;2023-07-09T12:36:20;28.50;99.90
27797;DHT22;15177;50.844;4.412;2023-07-09T12:38:50;28.10;99.90
27797;DHT22;15177;50.844;4.412;2023-07-09T12:41:35;27.80;99.90
27797;DHT22;15177;50.844;4.412;2023-07-09T12:44:02;27.50;99.90
27797;DHT22;15177;50.844;4.412;2023-07-09T12:46:28;27.30;99.90
27797;DHT22;15177;50.844;4.412;2023-07-09T12:48:55;27.00;99.90
27797;DHT22;15177;50.844;4.412;2023-07-09T12:51:23;26.80;99.90
27797;DHT22;15177;50.844;4.412;2023-07-09T12:56:35;26.40;99.90
27797;DHT22;15177;50.844;4.412;2023-07-09T12:59:02;26.30;99.90
27797;DHT22;15177;50.844;4.412;2023-07-09T13:01:34;26.30;99.90
27797;DHT22;15177;50.844;4.412;2023-07-09T13:04:01;26.30;99.90
27797;DHT22;15177;50.844;4.412;2023-07-09T13:06:35;26.10;99.90
27797;DHT22;15177;50.844;4.412;2023-07-09T13:09:03;26.10;99.90
27797;DHT22;15177;50.844;4.412;2023-07-09T13:11:35;26.10;99.90
27797;DHT22;15177;50.844;4.412;2023-07-09T13:14:05;26.10;99.90
27797;DHT22;15177;50.844;4.412;2023-07-09T13:16:38;26.10;99.90
27797;DHT22;15177;50.844;4.412;2023-07-09T13:19:05;26.10;99.90
27797;DHT22;15177;50.844;4.412;2023-07-09T13:21:31;26.30;99.90
27797;DHT22;15177;50.844;4.412;2023-07-09T13:23:58;26.40;99.90
27797;DHT22;15177;50.844;4.412;2023-07-09T13:26:24;26.60;99.90
27797;DHT22;15177;50.844;4.412;2023-07-09T13:28:53;26.70;99.90
27797;DHT22;15177;50.844;4.412;2023-07-09T13:31:20;26.80;99.90
27797;DHT22;15177;50.844;4.412;2023-07-09T13:33:57;26.90;99.90
27797;DHT22;15177;50.844;4.412;2023-07-09T13:36:24;26.90;99.90
27797;DHT22;15177;50.844;4.412;2023-07-09T13:38:50;27.00;99.90
27797;DHT22;15177;50.844;4.412;2023-07-09T13:41:19;27.00;99.90
27797;DHT22;15177;50.844;4.412;2023-07-09T13:43:48;26.90;99.90
27797;DHT22;15177;50.844;4.412;2023-07-09T13:46:16;26.80;99.90
27797;DHT22;15177;50.844;4.412;2023-07-09T13:48:43;26.70;99.90
27797;DHT22;15177;50.844;4.412;2023-07-09T13:51:22;26.80;99.90
27797;DHT22;15177;50.844;4.412;2023-07-09T13:53:53;26.90;99.90
27797;DHT22;15177;50.844;4.412;2023-07-09T13:56:21;26.90;99.90
27797;DHT22;15177;50.844;4.412;2023-07-09T13:58:47;27.10;99.90
27797;DHT22;15177;50.844;4.412;2023-07-09T14:01:18;27.30;99.90
27797;DHT22;15177;50.844;4.412;2023-07-09T14:03:46;27.40;99.90
27797;DHT22;15177;50.844;4.412;2023-07-09T14:06:14;27.40;99.90
27797;DHT22;15177;50.844;4.412;2023-07-09T14:08:40;27.40;99.90
27797;DHT22;15177;50.844;4.412;2023-07-09T14:11:14;27.50;99.90
27797;DHT22;15177;50.844;4.412;2023-07-09T14:13:41;27.70;99.90
27797;DHT22;15177;50.844;4.412;2023-07-09T14:16:11;27.70;99.90
27797;DHT22;15177;50.844;4.412;2023-07-09T14:18:37;27.80;99.90
27797;DHT22;15177;50.844;4.412;2023-07-09T14:21:13;27.80;99.90
27797;DHT22;15177;50.844;4.412;2023-07-09T14:23:39;27.90;99.90
27797;DHT22;15177;50.844;4.412;2023-07-09T14:26:05;28.10;99.90
27797;DHT22;15177;50.844;4.412;2023-07-09T14:28:31;28.20;99.90
27797;DHT22;15177;50.844;4.412;2023-07-09T14:30:57;28.10;99.90
27797;DHT22;15177;50.844;4.412;2023-07-09T14:33:23;28.00;99.90
27797;DHT22;15177;50.844;4.412;2023-07-09T14:35:49;28.00;99.90
27797;DHT22;15177;50.844;4.412;2023-07-09T14:38:22;28.10;99.90
27797;DHT22;15177;50.844;4.412;2023-07-09T14:40:50;28.10;99.90
27797;DHT22;15177;50.844;4.412;2023-07-09T14:43:16;28.00;99.90
27797;DHT22;15177;50.844;4.412;2023-07-09T14:45:42;27.80;99.90
27797;DHT22;15177;50.844;4.412;2023-07-09T14:48:15;27.70;99.90
27797;DHT22;15177;50.844;4.412;2023-07-09T14:50:42;27.80;99.90
27797;DHT22;15177;50.844;4.412;2023-07-09T14:53:35;27.80;99.90
27797;DHT22;15177;50.844;4.412;2023-07-09T14:55:59;27.90;99.90
27797;DHT22;15177;50.844;4.412;2023-07-09T14:58:26;27.90;99.90
27797;DHT22;15177;50.844;4.412;2023-07-09T15:00:52;27.90;99.90
27797;DHT22;15177;50.844;4.412;2023-07-09T15:03:23;27.80;99.90
27797;DHT22;15177;50.844;4.412;2023-07-09T15:05:49;27.80;99.90
27797;DHT22;15177;50.844;4.412;2023-07-09T15:08:21;27.70;99.90
27797;DHT22;15177;50.844;4.412;2023-07-09T15:10:51;27.80;99.90
27797;DHT22;15177;50.844;4.412;2023-07-09T15:13:25;27.80;99.90
27797;DHT22;15177;50.844;4.412;2023-07-09T15:15:52;27.80;99.90
27797;DHT22;15177;50.844;4.412;2023-07-09T15:18:18;27.80;99.90
27797;DHT22;15177;50.844;4.412;2023-07-09T15:20:49;27.70;99.90
27797;DHT22;15177;50.844;4.412;2023-07-09T15:23:15;27.70;99.90
27797;DHT22;15177;50.844;4.412;2023-07-09T15:25:40;27.70;99.90
27797;DHT22;15177;50.844;4.412;2023-07-09T15:28:09;27.70;99.90
27797;DHT22;15177;50.844;4.412;2023-07-09T15:30:35;27.90;99.90
27797;DHT22;15177;50.844;4.412;2023-07-09T15:33:02;27.90;99.90
27797;DHT22;15177;50.844;4.412;2023-07-09T15:35:33;28.00;99.90
27797;DHT22;15177;50.844;4.412;2023-07-09T15:38:09;27.90;99.90
27797;DHT22;15177;50.844;4.412;2023-07-09T15:40:38;28.20;99.90
27797;DHT22;15177;50.844;4.412;2023-07-09T15:43:08;28.30;99.90
27797;DHT22;15177;50.844;4.412;2023-07-09T15:45:39;28.40;99.90
27797;DHT22;15177;50.844;4.412;2023-07-09T15:48:06;28.30;99.90
27797;DHT22;15177;50.844;4.412;2023-07-09T15:50:33;28.40;99.90
27797;DHT22;15177;50.844;4.412;2023-07-09T15:53:00;28.40;99.90
27797;DHT22;15177;50.844;4.412;2023-07-09T15:55:27;28.40;99.90
27797;DHT22;15177;50.844;4.412;2023-07-09T15:57:54;28.40;99.90
27797;DHT22;15177;50.844;4.412;2023-07-09T16:00:25;28.50;99.90
27797;DHT22;15177;50.844;4.412;2023-07-09T16:02:53;28.50;99.90
27797;DHT22;15177;50.844;4.412;2023-07-09T16:07:46;28.30;99.90
27797;DHT22;15177;50.844;4.412;2023-07-09T16:10:12;28.20;99.90
27797;DHT22;15177;50.844;4.412;2023-07-09T16:12:39;27.90;99.90
27797;DHT22;15177;50.844;4.412;2023-07-09T16:15:05;27.80;99.90
27797;DHT22;15177;50.844;4.412;2023-07-09T16:17:31;27.70;99.90
27797;DHT22;15177;50.844;4.412;2023-07-09T16:19:56;27.80;99.90
27797;DHT22;15177;50.844;4.412;2023-07-09T16:22:23;27.70;99.90
27797;DHT22;15177;50.844;4.412;2023-07-09T16:24:49;27.80;99.90
27797;DHT22;15177;50.844;4.412;2023-07-09T16:27:16;27.80;99.90
27797;DHT22;15177;50.844;4.412;2023-07-09T16:29:41;27.80;99.90
27797;DHT22;15177;50.844;4.412;2023-07-09T16:32:08;27.90;99.90